Time;durP1;ratioP1;P1;durP2;ratioP2;P2;SDS_P1;SDS_P2;PMS_P1;PMS_P2;Temp;Humidity;BMP_temperature;BMP_pressure;BME280_temperature;BME280_humidity;BME280_pressure;Samples;Min_cycle;Max_cycle;Signal;HPM_P1;HPM_P2
2023/08/09 00:00:34;;;;;;;5.63;3.70;;;14.50;99.90;;;;;;5020527;28;20132;-64
2023/08/09 00:03:00;;;;;;;8.20;3.72;;;14.50;99.90;;;;;;5028185;28;20017;-65
2023/08/09 00:05:26;;;;;;;6.93;3.25;;;14.50;99.90;;;;;;4997447;28;20046;-64
2023/08/09 00:07:51;;;;;;;5.30;3.55;;;14.50;99.90;;;;;;5024308;28;20034;-63
2023/08/09 00:10:17;;;;;;;5.03;3.30;;;14.50;99.90;;;;;;5023142;28;20057;-66
2023/08/09 00:12:43;;;;;;;7.15;3.42;;;14.50;99.90;;;;;;5024044;28;20037;-66
2023/08/09 00:15:09;;;;;;;11.63;3.50;;;14.50;99.90;;;;;;5019843;28;20049;-67
2023/08/09 00:17:35;;;;;;;6.55;3.15;;;14.50;99.90;;;;;;5016410;28;20033;-66
2023/08/09 00:20:00;;;;;;;8.32;3.20;;;14.50;99.90;;;;;;5023451;28;20372;-65
2023/08/09 00:22:26;;;;;;;5.50;3.40;;;14.50;99.90;;;;;;5030962;28;20060;-66
2023/08/09 00:24:52;;;;;;;5.65;3.50;;;14.50;99.90;;;;;;5020083;28;20116;-65
2023/08/09 00:27:18;;;;;;;8.23;3.42;;;14.50;99.90;;;;;;5037016;28;20033;-65
2023/08/09 00:29:44;;;;;;;5.57;3.63;;;14.50;99.90;;;;;;5032165;28;20033;-65
2023/08/09 00:32:09;;;;;;;7.53;3.13;;;14.50;99.90;;;;;;5029080;28;20033;-66
2023/08/09 00:34:35;;;;;;;8.20;3.67;;;14.50;99.90;;;;;;5029432;28;20029;-66
2023/08/09 00:37:01;;;;;;;6.78;3.38;;;14.50;99.90;;;;;;5029306;28;20057;-65
2023/08/09 00:39:27;;;;;;;5.70;4.35;;;14.50;99.90;;;;;;5030041;28;20037;-65
2023/08/09 00:41:53;;;;;;;7.75;3.35;;;14.50;99.90;;;;;;5018874;28;20069;-66
2023/08/09 00:44:18;;;;;;;7.30;3.00;;;14.50;99.90;;;;;;5031903;28;20172;-65
2023/08/09 00:46:50;;;;;;;5.18;2.67;;;14.50;99.90;;;;;;5022794;28;20112;-66
2023/08/09 00:49:17;;;;;;;9.82;3.67;;;14.60;99.90;;;;;;5019469;28;20037;-68
2023/08/09 00:51:44;;;;;;;5.20;3.17;;;14.60;99.90;;;;;;5023386;28;20419;-65
2023/08/09 00:54:09;;;;;;;4.10;3.20;;;14.60;99.90;;;;;;5018606;28;20021;-65
2023/08/09 00:56:35;;;;;;;7.32;3.13;;;14.60;99.90;;;;;;5019617;28;20037;-65
2023/08/09 00:59:02;;;;;;;5.55;3.50;;;14.60;99.90;;;;;;5025816;28;20447;-65
2023/08/09 01:01:28;;;;;;;12.85;3.30;;;14.60;99.90;;;;;;5022816;28;20013;-65
2023/08/09 01:03:53;;;;;;;5.25;2.92;;;14.60;99.90;;;;;;5021912;28;20509;-65
2023/08/09 01:06:29;;;;;;;6.03;3.35;;;14.60;99.90;;;;;;4995155;28;20513;-66
2023/08/09 01:09:09;;;;;;;7.15;4.03;;;14.60;99.90;;;;;;5026700;28;20148;-67
2023/08/09 01:11:49;;;;;;;5.20;3.55;;;14.70;99.90;;;;;;5020819;28;20033;-65
2023/08/09 01:14:20;;;;;;;7.35;3.90;;;14.60;99.90;;;;;;5008016;28;20931;-65
2023/08/09 01:16:46;;;;;;;7.05;4.50;;;14.70;99.90;;;;;;5002592;28;20033;-65
2023/08/09 01:19:35;;;;;;;5.80;4.20;;;14.70;99.90;;;;;;5005237;28;20030;-65
2023/08/09 01:22:20;;;;;;;7.18;4.75;;;14.70;99.90;;;;;;4999447;28;20037;-66
2023/08/09 01:24:45;;;;;;;10.32;5.45;;;14.70;99.90;;;;;;5003882;28;20057;-65
2023/08/09 01:27:11;;;;;;;5.68;4.22;;;14.70;99.90;;;;;;5003041;28;20427;-65
2023/08/09 01:29:38;;;;;;;9.15;5.63;;;14.70;99.90;;;;;;5007104;28;20554;-65
2023/08/09 01:32:04;;;;;;;7.30;4.90;;;14.80;99.90;;;;;;5003290;28;20626;-66
2023/08/09 01:34:31;;;;;;;13.07;5.28;;;14.80;99.90;;;;;;5004705;28;20145;-65
2023/08/09 01:37:03;;;;;;;6.93;5.15;;;14.80;99.90;;;;;;5010584;28;20041;-65
2023/08/09 01:39:33;;;;;;;10.15;4.78;;;14.80;99.90;;;;;;5016267;28;20033;-66
2023/08/09 01:41:59;;;;;;;11.70;5.32;;;14.80;99.90;;;;;;5019126;28;20049;-66
2023/08/09 01:44:26;;;;;;;9.98;5.47;;;14.80;99.90;;;;;;5020566;28;20125;-65
2023/08/09 01:46:52;;;;;;;7.55;5.07;;;14.80;99.90;;;;;;5023634;28;20030;-65
2023/08/09 01:49:21;;;;;;;11.05;5.72;;;14.80;99.90;;;;;;5017986;28;20021;-65
2023/08/09 01:51:47;;;;;;;9.85;6.05;;;14.80;99.90;;;;;;5018291;28;20028;-65
2023/08/09 01:54:13;;;;;;;7.13;5.68;;;14.80;99.90;;;;;;5022817;28;20092;-66
2023/08/09 01:56:40;;;;;;;10.13;6.32;;;14.80;99.90;;;;;;5021803;28;20032;-66
2023/08/09 01:59:06;;;;;;;11.60;6.45;;;14.90;99.90;;;;;;5023629;28;20044;-65
2023/08/09 02:01:32;;;;;;;12.30;6.32;;;14.80;99.90;;;;;;5026807;28;20483;-65
2023/08/09 02:03:57;;;;;;;10.20;6.93;;;14.80;99.90;;;;;;5020913;28;20033;-66
2023/08/09 02:06:23;;;;;;;12.15;6.47;;;14.80;99.90;;;;;;4999645;28;20524;-65
2023/08/09 02:08:49;;;;;;;8.93;6.03;;;14.80;99.90;;;;;;5015299;28;20026;-65
2023/08/09 02:11:14;;;;;;;16.35;7.43;;;14.80;99.90;;;;;;5010588;28;20041;-65
2023/08/09 02:13:40;;;;;;;8.90;6.35;;;14.80;99.90;;;;;;5019812;28;20033;-66
2023/08/09 02:16:06;;;;;;;11.73;6.53;;;14.80;99.90;;;;;;5018772;28;20373;-65
2023/08/09 02:18:33;;;;;;;10.43;7.72;;;14.80;99.90;;;;;;5015463;28;20049;-65
2023/08/09 02:21:00;;;;;;;15.00;7.50;;;14.80;99.90;;;;;;5023893;28;20115;-65
2023/08/09 02:23:26;;;;;;;11.18;6.28;;;14.80;99.90;;;;;;5025198;28;20551;-66
2023/08/09 02:25:55;;;;;;;11.93;7.07;;;14.80;99.90;;;;;;5023778;28;20142;-64
2023/08/09 02:28:21;;;;;;;8.82;4.88;;;14.90;99.90;;;;;;5023825;28;20029;-65
2023/08/09 02:30:46;;;;;;;4.55;3.55;;;14.90;99.90;;;;;;5024353;28;20439;-66
2023/08/09 02:33:12;;;;;;;3.97;2.85;;;14.90;99.90;;;;;;5020198;28;20025;-64
2023/08/09 02:36:00;;;;;;;2.22;1.50;;;14.90;99.90;;;;;;5016683;28;20142;-65
2023/08/09 02:38:27;;;;;;;3.30;1.42;;;14.70;99.90;;;;;;5027408;28;20037;-65
2023/08/09 02:40:53;;;;;;;2.00;1.55;;;14.70;99.90;;;;;;5019784;28;20029;-63
2023/08/09 02:43:20;;;;;;;2.50;1.20;;;14.60;99.90;;;;;;5018179;28;20045;-65
2023/08/09 02:45:46;;;;;;;1.83;1.40;;;14.60;99.90;;;;;;5026772;28;20087;-65
2023/08/09 02:48:12;;;;;;;1.27;1.17;;;14.50;99.90;;;;;;5025676;28;20512;-66
2023/08/09 02:50:39;;;;;;;1.38;1.27;;;14.50;99.90;;;;;;5021073;28;20045;-65
2023/08/09 02:53:05;;;;;;;4.32;1.88;;;14.50;99.90;;;;;;5018787;28;20060;-65
2023/08/09 02:55:32;;;;;;;3.58;1.77;;;14.40;99.90;;;;;;5022640;28;20033;-66
2023/08/09 02:58:00;;;;;;;2.25;1.33;;;14.40;99.90;;;;;;5023524;28;20034;-65
2023/08/09 03:00:25;;;;;;;2.50;1.33;;;14.30;99.90;;;;;;5025427;28;20025;-65
2023/08/09 03:02:51;;;;;;;2.47;1.40;;;14.30;99.90;;;;;;5020735;28;20538;-65
2023/08/09 03:05:17;;;;;;;2.75;1.38;;;14.30;99.90;;;;;;5020575;28;20076;-65
2023/08/09 03:07:43;;;;;;;4.13;2.20;;;14.30;99.90;;;;;;4995670;28;20136;-66
2023/08/09 03:10:09;;;;;;;2.60;1.38;;;14.30;99.90;;;;;;5023463;28;20048;-66
2023/08/09 03:12:35;;;;;;;3.78;1.83;;;14.30;99.90;;;;;;5020560;28;20479;-66
2023/08/09 03:15:02;;;;;;;4.95;1.30;;;14.20;99.90;;;;;;5017592;28;20129;-66
2023/08/09 03:17:27;;;;;;;1.70;1.60;;;14.20;99.90;;;;;;5020678;28;20032;-66
2023/08/09 03:19:53;;;;;;;2.75;1.27;;;14.20;99.90;;;;;;5010427;28;20415;-66
2023/08/09 03:22:18;;;;;;;1.80;1.27;;;14.20;99.90;;;;;;5021343;28;20029;-64
2023/08/09 03:24:44;;;;;;;5.53;1.33;;;14.10;99.90;;;;;;5018394;28;20152;-65
2023/08/09 03:27:10;;;;;;;1.38;1.25;;;14.20;99.90;;;;;;5013163;28;20408;-65
2023/08/09 03:29:36;;;;;;;3.92;1.20;;;14.10;99.90;;;;;;5021366;28;20029;-66
2023/08/09 03:32:02;;;;;;;1.63;1.30;;;14.10;99.90;;;;;;5014258;28;20453;-65
2023/08/09 03:34:27;;;;;;;3.38;1.40;;;14.10;99.90;;;;;;5016732;28;20030;-66
2023/08/09 03:36:53;;;;;;;4.55;1.30;;;14.10;99.90;;;;;;5025896;28;20104;-64
2023/08/09 03:39:19;;;;;;;1.45;1.08;;;14.10;99.90;;;;;;5020833;28;20083;-64
2023/08/09 03:41:44;;;;;;;1.55;1.20;;;14.10;99.90;;;;;;5021127;28;20098;-66
2023/08/09 03:44:10;;;;;;;1.20;1.10;;;14.00;99.90;;;;;;5022164;28;20105;-65
2023/08/09 03:46:36;;;;;;;1.63;1.02;;;14.00;99.90;;;;;;5018880;28;20029;-64
2023/08/09 03:49:02;;;;;;;1.88;1.30;;;14.00;99.90;;;;;;5014758;28;20056;-64
2023/08/09 03:51:27;;;;;;;1.50;1.30;;;14.00;99.90;;;;;;5004407;28;20335;-64
2023/08/09 03:53:53;;;;;;;4.63;1.27;;;14.00;99.90;;;;;;5020761;28;20530;-64
2023/08/09 03:56:18;;;;;;;2.22;1.23;;;13.90;99.90;;;;;;5017157;28;20035;-65
2023/08/09 03:58:44;;;;;;;1.27;0.98;;;14.00;99.90;;;;;;5031387;28;20057;-64
2023/08/09 04:01:11;;;;;;;1.58;1.38;;;14.00;99.90;;;;;;5031199;28;21526;-63
2023/08/09 04:03:38;;;;;;;2.40;1.50;;;14.00;99.90;;;;;;5028792;28;20021;-66
2023/08/09 04:06:03;;;;;;;2.00;1.45;;;14.00;99.90;;;;;;5028612;28;20026;-66
2023/08/09 04:08:30;;;;;;;2.55;1.40;;;13.90;99.90;;;;;;5018876;28;20026;-66
2023/08/09 04:10:56;;;;;;;7.10;1.10;;;13.90;99.90;;;;;;5019318;28;20025;-64
2023/08/09 04:13:22;;;;;;;1.75;1.25;;;13.90;99.90;;;;;;5027449;28;20030;-66
2023/08/09 04:15:47;;;;;;;1.58;1.38;;;13.90;99.90;;;;;;5025872;28;20068;-66
2023/08/09 04:18:14;;;;;;;1.63;1.02;;;13.90;99.90;;;;;;5030197;28;20112;-65
2023/08/09 04:20:41;;;;;;;3.85;1.90;;;13.90;99.90;;;;;;5028974;28;20033;-65
2023/08/09 04:23:08;;;;;;;3.97;1.92;;;13.90;99.90;;;;;;5019637;28;20021;-66
2023/08/09 04:25:33;;;;;;;2.53;1.70;;;13.80;99.90;;;;;;5022688;28;20032;-65
2023/08/09 04:27:59;;;;;;;3.53;1.90;;;13.80;99.90;;;;;;5022897;28;20033;-65
2023/08/09 04:30:25;;;;;;;4.68;2.08;;;13.80;99.90;;;;;;5021518;28;20154;-65
2023/08/09 04:32:52;;;;;;;4.32;1.83;;;13.70;99.90;;;;;;5021615;28;20059;-65
2023/08/09 04:35:18;;;;;;;2.50;1.70;;;13.70;99.90;;;;;;5038238;28;20829;-64
2023/08/09 04:37:44;;;;;;;8.63;1.88;;;13.70;99.90;;;;;;5018645;28;20034;-66
2023/08/09 04:40:10;;;;;;;3.65;1.75;;;13.70;99.90;;;;;;5021322;28;20044;-66
2023/08/09 04:42:43;;;;;;;3.85;3.03;;;13.80;99.90;;;;;;5020614;28;20426;-66
2023/08/09 04:45:10;;;;;;;4.15;1.50;;;13.90;99.90;;;;;;5018982;28;20029;-66
2023/08/09 04:47:36;;;;;;;2.72;1.65;;;13.90;99.90;;;;;;5021090;28;20038;-67
2023/08/09 04:50:07;;;;;;;2.42;1.50;;;14.10;99.90;;;;;;5020169;28;20033;-65
2023/08/09 04:52:34;;;;;;;3.20;2.60;;;14.10;99.90;;;;;;5020905;28;20143;-66
2023/08/09 04:55:00;;;;;;;2.08;1.55;;;14.20;99.90;;;;;;5021730;28;20053;-65
2023/08/09 04:57:26;;;;;;;2.90;1.70;;;14.20;99.90;;;;;;5020536;28;20056;-66
2023/08/09 04:59:52;;;;;;;2.35;1.75;;;14.20;99.90;;;;;;5021449;28;20025;-66
2023/08/09 05:02:17;;;;;;;2.10;1.45;;;14.30;99.90;;;;;;5023605;28;20092;-65
2023/08/09 05:04:43;;;;;;;3.47;1.55;;;14.40;99.90;;;;;;5020422;28;20075;-65
2023/08/09 05:07:08;;;;;;;2.15;1.45;;;14.50;99.90;;;;;;5022856;28;20029;-65
2023/08/09 05:09:34;;;;;;;2.10;1.40;;;14.60;99.90;;;;;;5021485;28;20115;-66
2023/08/09 05:12:00;;;;;;;4.25;1.52;;;14.70;99.90;;;;;;5022966;28;20568;-66
2023/08/09 05:14:26;;;;;;;2.25;1.30;;;15.40;99.90;;;;;;5013833;28;20083;-66
2023/08/09 05:16:52;;;;;;;2.83;1.50;;;16.50;99.90;;;;;;5019564;28;22047;-66
2023/08/09 05:19:18;;;;;;;1.83;0.90;;;17.50;99.90;;;;;;5016840;28;20673;-66
2023/08/09 05:24:14;;;;;;;1.30;0.70;;;19.30;99.90;;;;;;5048555;28;20041;-62
2023/08/09 05:26:40;;;;;;;2.45;1.08;;;19.90;99.90;;;;;;5051710;28;20025;-63
2023/08/09 05:29:06;;;;;;;4.55;0.98;;;20.60;99.90;;;;;;5055810;28;20020;-63
2023/08/09 05:31:31;;;;;;;1.02;0.90;;;21.40;99.90;;;;;;5053120;28;20036;-63
2023/08/09 05:33:57;;;;;;;1.45;0.60;;;21.20;99.90;;;;;;5056498;28;20481;-64
2023/08/09 05:36:23;;;;;;;2.38;0.98;;;21.20;99.90;;;;;;5063022;28;20028;-64
2023/08/09 05:38:49;;;;;;;2.70;0.80;;;21.60;99.90;;;;;;5059487;28;20037;-66
2023/08/09 05:41:15;;;;;;;2.60;1.05;;;22.10;99.90;;;;;;5056967;28;20489;-66
2023/08/09 05:43:40;;;;;;;1.48;0.90;;;22.20;99.90;;;;;;5054452;28;20032;-64
2023/08/09 05:46:06;;;;;;;1.80;0.70;;;22.70;99.90;;;;;;5057860;28;20040;-64
2023/08/09 05:48:31;;;;;;;2.75;0.80;;;22.70;99.90;;;;;;5059768;28;20029;-64
2023/08/09 05:50:57;;;;;;;1.88;0.70;;;22.90;99.90;;;;;;5049667;28;20025;-64
2023/08/09 05:53:23;;;;;;;0.90;0.75;;;23.10;99.90;;;;;;5061566;28;20017;-64
2023/08/09 05:55:49;;;;;;;1.63;0.88;;;23.50;98.30;;;;;;5052640;28;20029;-64
2023/08/09 05:58:15;;;;;;;3.42;1.02;;;23.90;96.10;;;;;;5054948;28;20064;-63
2023/08/09 06:00:40;;;;;;;0.98;0.70;;;24.50;94.50;;;;;;5059568;28;20057;-64
2023/08/09 06:03:07;;;;;;;1.60;0.85;;;24.80;93.90;;;;;;5067406;28;20465;-64
2023/08/09 06:05:32;;;;;;;1.17;0.60;;;24.50;93.70;;;;;;5055652;28;20519;-64
2023/08/09 06:07:58;;;;;;;0.90;0.75;;;24.30;96.10;;;;;;5055824;28;20145;-64
2023/08/09 06:10:25;;;;;;;1.58;0.95;;;25.00;94.20;;;;;;5058844;28;20075;-66
2023/08/09 06:12:52;;;;;;;1.30;0.90;;;25.10;95.00;;;;;;5065551;28;20021;-63
2023/08/09 06:15:19;;;;;;;2.05;0.70;;;24.30;95.40;;;;;;5058082;28;20016;-65
2023/08/09 06:17:46;;;;;;;1.95;0.95;;;23.90;94.20;;;;;;5062078;28;20074;-64
2023/08/09 06:20:14;;;;;;;3.45;1.20;;;23.20;96.30;;;;;;5057021;28;20611;-64
2023/08/09 06:22:41;;;;;;;1.85;0.80;;;23.00;97.30;;;;;;5056739;28;20163;-64
2023/08/09 06:25:10;;;;;;;3.65;0.70;;;22.80;99.40;;;;;;5054127;28;20021;-64
2023/08/09 06:27:36;;;;;;;1.50;0.80;;;23.50;97.50;;;;;;5065672;28;20020;-63
2023/08/09 06:30:03;;;;;;;0.80;0.70;;;23.90;98.80;;;;;;5063038;28;20493;-64
2023/08/09 06:32:29;;;;;;;2.58;0.90;;;24.50;96.70;;;;;;5056632;28;20032;-64
2023/08/09 06:34:55;;;;;;;2.08;0.77;;;25.40;94.20;;;;;;5061554;28;20035;-59
2023/08/09 06:37:20;;;;;;;1.02;0.85;;;25.50;93.50;;;;;;5047418;28;20102;-64
2023/08/09 06:39:46;;;;;;;1.05;0.70;;;26.30;92.60;;;;;;5053430;28;20060;-64
2023/08/09 06:42:12;;;;;;;2.03;0.80;;;27.90;86.90;;;;;;5049598;28;20025;-64
2023/08/09 06:44:39;;;;;;;3.08;1.00;;;26.90;85.80;;;;;;5058648;28;20033;-65
2023/08/09 06:47:05;;;;;;;3.22;0.90;;;26.90;88.90;;;;;;5053708;28;20021;-64
2023/08/09 06:49:30;;;;;;;1.02;0.65;;;27.00;90.90;;;;;;5050181;28;20031;-64
2023/08/09 06:51:58;;;;;;;1.80;0.88;;;28.20;85.60;;;;;;5043180;28;20045;-66
2023/08/09 06:54:24;;;;;;;0.70;0.60;;;27.60;82.10;;;;;;5053765;28;20118;-64
2023/08/09 06:56:50;;;;;;;1.02;0.70;;;27.20;85.60;;;;;;5060826;28;20482;-64
2023/08/09 06:59:16;;;;;;;1.00;0.70;;;27.70;88.20;;;;;;5055828;28;20082;-66
2023/08/09 07:01:43;;;;;;;2.65;0.73;;;29.20;80.80;;;;;;5064607;28;20048;-65
2023/08/09 07:04:09;;;;;;;1.55;0.88;;;27.90;82.30;;;;;;5054450;28;20039;-67
2023/08/09 07:06:34;;;;;;;1.33;0.90;;;27.40;81.60;;;;;;5059756;28;20470;-64
2023/08/09 07:09:00;;;;;;;2.10;0.95;;;26.00;85.50;;;;;;5058080;28;20082;-65
2023/08/09 07:11:25;;;;;;;1.40;0.73;;;24.90;89.70;;;;;;5057362;28;20028;-64
2023/08/09 07:13:51;;;;;;;2.72;1.10;;;23.10;93.40;;;;;;5063473;28;20037;-64
2023/08/09 07:16:16;;;;;;;2.10;1.05;;;22.00;97.90;;;;;;5057545;28;20490;-65
2023/08/09 07:18:42;;;;;;;1.42;0.90;;;21.50;98.40;;;;;;5057129;28;20452;-66
2023/08/09 07:21:08;;;;;;;1.35;0.95;;;21.80;99.50;;;;;;5058759;28;20025;-64
2023/08/09 07:23:33;;;;;;;3.42;0.98;;;22.90;96.70;;;;;;5057656;28;20032;-65
2023/08/09 07:25:59;;;;;;;2.72;0.90;;;23.60;95.90;;;;;;5059716;28;20024;-64
2023/08/09 07:28:25;;;;;;;2.88;0.85;;;24.00;95.30;;;;;;5066143;28;20039;-65
2023/08/09 07:30:51;;;;;;;3.95;0.80;;;25.30;92.80;;;;;;5060937;28;20041;-65
2023/08/09 07:33:17;;;;;;;1.92;0.85;;;26.00;89.40;;;;;;5058519;28;20040;-66
2023/08/09 07:35:42;;;;;;;1.45;0.85;;;26.60;90.90;;;;;;5060645;28;20037;-64
2023/08/09 07:38:08;;;;;;;3.00;0.90;;;26.60;85.00;;;;;;5058538;28;20025;-65
2023/08/09 07:40:33;;;;;;;1.10;0.75;;;25.30;91.80;;;;;;5062081;28;20029;-65
2023/08/09 07:43:00;;;;;;;0.82;0.65;;;25.00;91.30;;;;;;5070609;28;20048;-63
2023/08/09 07:45:25;;;;;;;1.48;0.80;;;25.00;91.10;;;;;;5070701;28;20017;-64
2023/08/09 07:47:51;;;;;;;1.20;0.55;;;25.60;90.00;;;;;;5053413;28;20028;-64
2023/08/09 07:50:17;;;;;;;4.47;0.80;;;26.60;91.10;;;;;;5076980;28;20441;-65
2023/08/09 07:52:42;;;;;;;2.67;0.70;;;27.10;88.90;;;;;;5046740;28;20049;-64
2023/08/09 07:55:08;;;;;;;1.73;0.90;;;27.60;89.70;;;;;;5059732;28;20052;-65
2023/08/09 07:57:34;;;;;;;6.80;1.02;;;28.50;80.90;;;;;;5064080;28;20039;-64
2023/08/09 08:00:17;;;;;;;1.67;0.70;;;28.10;78.70;;;;;;5073813;28;20024;-65
2023/08/09 08:02:43;;;;;;;1.33;0.80;;;28.50;84.30;;;;;;5061990;28;20454;-65
2023/08/09 08:05:11;;;;;;;0.88;0.70;;;28.10;74.20;;;;;;5057326;28;20037;-66
2023/08/09 08:07:38;;;;;;;1.08;0.70;;;28.30;76.10;;;;;;5058177;28;20040;-64
2023/08/09 08:10:05;;;;;;;1.13;0.90;;;28.20;77.50;;;;;;5057039;28;20119;-66
2023/08/09 08:12:30;;;;;;;2.30;0.80;;;28.00;75.80;;;;;;5070784;28;20024;-65
2023/08/09 08:14:56;;;;;;;2.33;0.60;;;28.40;77.10;;;;;;5057554;28;20094;-59
2023/08/09 08:17:22;;;;;;;1.95;0.77;;;28.80;76.00;;;;;;5057644;28;20036;-66
2023/08/09 08:19:47;;;;;;;1.10;0.60;;;29.70;75.60;;;;;;5062430;28;20580;-65
2023/08/09 08:22:14;;;;;;;1.13;0.90;;;30.00;74.90;;;;;;5058406;28;20043;-66
2023/08/09 08:24:40;;;;;;;0.70;0.68;;;29.30;74.50;;;;;;5061650;28;20051;-64
2023/08/09 08:27:06;;;;;;;1.63;0.85;;;28.50;77.60;;;;;;5071858;28;20027;-65
2023/08/09 08:29:31;;;;;;;2.25;1.10;;;27.90;76.90;;;;;;5048750;28;20102;-65
2023/08/09 08:31:57;;;;;;;2.60;0.90;;;27.90;81.20;;;;;;5058394;28;20483;-64
2023/08/09 08:34:23;;;;;;;1.00;1.00;;;28.00;79.80;;;;;;5056186;28;20036;-65
2023/08/09 08:36:54;;;;;;;3.88;1.27;;;28.00;79.80;;;;;;5062457;28;20032;-67
2023/08/09 08:39:19;;;;;;;3.47;1.13;;;27.40;76.50;;;;;;5052169;28;20086;-63
2023/08/09 08:41:48;;;;;;;2.63;0.80;;;27.30;80.40;;;;;;5056741;28;20112;-63
2023/08/09 08:44:14;;;;;;;1.35;0.85;;;26.80;79.80;;;;;;5062271;28;20390;-65
2023/08/09 08:46:41;;;;;;;2.05;0.90;;;26.00;83.40;;;;;;5051816;28;20025;-65
2023/08/09 08:49:14;;;;;;;2.92;0.75;;;25.80;81.80;;;;;;5056149;28;20017;-65
2023/08/09 08:51:42;;;;;;;3.67;1.17;;;24.80;83.30;;;;;;5060306;28;20033;-65
2023/08/09 08:54:09;;;;;;;1.88;1.02;;;23.80;87.30;;;;;;5055481;28;20508;-65
2023/08/09 08:56:34;;;;;;;1.13;0.80;;;23.20;88.90;;;;;;5045646;28;20052;-66
2023/08/09 08:59:00;;;;;;;3.20;1.52;;;22.30;93.30;;;;;;5069180;28;20043;-64
2023/08/09 09:01:26;;;;;;;6.22;0.85;;;21.60;95.30;;;;;;5056038;28;20032;-63
2023/08/09 09:03:52;;;;;;;1.65;0.68;;;21.40;96.60;;;;;;5059773;28;20097;-65
2023/08/09 09:06:17;;;;;;;0.77;0.70;;;21.90;98.90;;;;;;5046884;28;20464;-63
2023/08/09 09:08:44;;;;;;;2.17;0.80;;;22.70;93.30;;;;;;5052947;28;20025;-64
2023/08/09 09:11:21;;;;;;;0.82;0.60;;;23.40;93.60;;;;;;5057636;28;20055;-65
2023/08/09 09:13:49;;;;;;;1.25;0.68;;;24.30;85.30;;;;;;5067376;28;20017;-65
2023/08/09 09:16:16;;;;;;;1.10;0.63;;;24.50;84.60;;;;;;5049428;28;20035;-66
2023/08/09 09:18:46;;;;;;;1.17;0.60;;;24.90;88.50;;;;;;5065378;28;20382;-65
2023/08/09 09:21:14;;;;;;;2.22;0.63;;;25.40;91.30;;;;;;5052883;28;20102;-65
2023/08/09 09:23:39;;;;;;;1.67;0.80;;;26.10;86.60;;;;;;5051950;28;20035;-65
2023/08/09 09:26:10;;;;;;;1.33;0.60;;;26.50;82.20;;;;;;5057360;28;20155;-66
2023/08/09 09:28:41;;;;;;;1.27;0.82;;;26.00;84.30;;;;;;5066044;28;20150;-65
2023/08/09 09:31:07;;;;;;;1.88;0.93;;;26.40;85.40;;;;;;5052499;28;20082;-64
2023/08/09 09:33:37;;;;;;;1.17;0.60;;;26.60;81.30;;;;;;5052927;28;20049;-67
2023/08/09 09:36:03;;;;;;;0.70;0.52;;;26.80;82.10;;;;;;5056604;28;20042;-64
2023/08/09 09:38:29;;;;;;;2.50;1.08;;;26.00;77.70;;;;;;5061857;28;20025;-66
2023/08/09 09:40:56;;;;;;;1.63;0.88;;;26.10;84.90;;;;;;5053549;28;20044;-65
2023/08/09 09:43:23;;;;;;;1.35;0.85;;;26.40;79.10;;;;;;5053915;28;20519;-65
2023/08/09 09:45:53;;;;;;;1.95;1.15;;;26.40;77.40;;;;;;5055618;28;20032;-64
2023/08/09 09:48:19;;;;;;;2.75;0.70;;;25.50;82.60;;;;;;5060107;28;20029;-64
2023/08/09 09:50:45;;;;;;;1.80;0.80;;;25.00;85.00;;;;;;5051403;28;20989;-65
2023/08/09 09:53:13;;;;;;;3.13;0.50;;;24.10;90.30;;;;;;5057704;28;20072;-64
2023/08/09 09:55:40;;;;;;;1.33;0.60;;;23.90;87.10;;;;;;5040754;28;20062;-64
2023/08/09 09:58:06;;;;;;;0.93;0.60;;;23.90;89.30;;;;;;5064833;28;20089;-65
2023/08/09 10:00:33;;;;;;;1.85;0.73;;;24.00;90.30;;;;;;5055972;28;20020;-65
2023/08/09 10:03:06;;;;;;;0.98;0.70;;;24.80;89.20;;;;;;5054178;28;20082;-57
2023/08/09 10:05:37;;;;;;;1.38;0.60;;;25.40;81.00;;;;;;5063529;28;20099;-65
2023/08/09 10:08:12;;;;;;;4.78;1.70;;;26.20;78.40;;;;;;5057930;28;20028;-64
2023/08/09 10:10:40;;;;;;;1.88;0.80;;;27.20;81.90;;;;;;5051121;28;20039;-64
2023/08/09 10:13:07;;;;;;;1.55;0.70;;;26.90;76.10;;;;;;5060228;28;20123;-64
2023/08/09 10:15:43;;;;;;;0.52;0.32;;;26.70;72.60;;;;;;5054063;28;20029;-65
2023/08/09 10:18:23;;;;;;;1.25;0.80;;;26.30;78.00;;;;;;5057379;28;20032;-65
2023/08/09 10:20:52;;;;;;;1.15;0.70;;;26.30;76.20;;;;;;5051457;28;21378;-66
2023/08/09 10:23:30;;;;;;;2.95;0.70;;;26.50;75.50;;;;;;5051127;28;20071;-63
2023/08/09 10:25:56;;;;;;;2.72;0.70;;;25.90;76.00;;;;;;5046016;28;20035;-66
2023/08/09 10:28:42;;;;;;;0.90;0.60;;;25.90;77.70;;;;;;5049695;28;20040;-64
2023/08/09 10:31:07;;;;;;;3.20;0.70;;;25.70;71.80;;;;;;5050993;28;20036;-65
2023/08/09 10:33:33;;;;;;;1.75;0.70;;;25.50;75.80;;;;;;5062541;28;20025;-66
2023/08/09 10:35:59;;;;;;;1.05;0.65;;;25.10;74.70;;;;;;5067797;28;20031;-64
2023/08/09 10:38:30;;;;;;;1.00;0.82;;;25.80;76.00;;;;;;5067397;28;20123;-65
2023/08/09 10:40:56;;;;;;;1.65;0.75;;;25.10;74.30;;;;;;5046692;28;20481;-66
2023/08/09 10:43:24;;;;;;;1.67;0.70;;;25.00;77.10;;;;;;5058578;28;20029;-66
2023/08/09 10:45:52;;;;;;;2.08;0.85;;;25.20;76.40;;;;;;5052492;28;20138;-64
2023/08/09 10:48:22;;;;;;;4.55;1.25;;;25.10;74.40;;;;;;5048712;28;20037;-66
2023/08/09 10:51:11;;;;;;;0.98;0.73;;;24.90;75.20;;;;;;5053865;28;20040;-67
2023/08/09 10:53:54;;;;;;;1.38;0.57;;;24.70;78.20;;;;;;5066890;28;20449;-65
2023/08/09 10:56:45;;;;;;;1.30;0.68;;;25.50;78.30;;;;;;5042692;28;20052;-65
2023/08/09 10:59:24;;;;;;;3.25;0.70;;;25.20;73.60;;;;;;5063885;28;20029;-64
2023/08/09 11:01:51;;;;;;;2.20;0.80;;;25.50;73.40;;;;;;5064091;28;20086;-65
2023/08/09 11:04:17;;;;;;;1.17;0.50;;;25.90;71.00;;;;;;5061754;28;20023;-65
2023/08/09 11:06:47;;;;;;;1.73;0.70;;;25.70;71.90;;;;;;5067840;28;20029;-64
2023/08/09 11:09:18;;;;;;;2.15;1.00;;;25.50;74.30;;;;;;5063750;28;20044;-66
2023/08/09 11:11:46;;;;;;;2.13;1.00;;;25.50;75.00;;;;;;5059846;28;20040;-65
2023/08/09 11:14:13;;;;;;;0.80;0.63;;;25.60;73.70;;;;;;5056064;28;20402;-64
2023/08/09 11:16:39;;;;;;;1.63;0.80;;;25.50;70.60;;;;;;5048369;28;20031;-64
2023/08/09 11:19:12;;;;;;;3.20;0.73;;;24.80;70.20;;;;;;5053357;28;20037;-65
2023/08/09 11:22:03;;;;;;;1.08;0.93;;;24.50;74.30;;;;;;5055673;28;20035;-64
2023/08/09 11:24:32;;;;;;;1.42;0.98;;;24.70;78.60;;;;;;5051171;28;20558;-63
2023/08/09 11:26:59;;;;;;;1.58;0.80;;;24.70;78.60;;;;;;5053008;28;20178;-65
2023/08/09 11:29:27;;;;;;;1.77;1.38;;;24.90;77.50;;;;;;5058999;28;20029;-64
2023/08/09 11:31:54;;;;;;;1.67;0.80;;;24.70;80.20;;;;;;5058770;28;20021;-65
2023/08/09 11:34:22;;;;;;;1.65;0.93;;;24.20;75.80;;;;;;5065992;28;20032;-65
2023/08/09 11:36:49;;;;;;;1.85;0.73;;;24.00;77.60;;;;;;5066045;28;20032;-64
2023/08/09 11:39:16;;;;;;;2.25;0.70;;;23.80;77.50;;;;;;5062164;28;20029;-64
2023/08/09 11:41:55;;;;;;;1.40;0.73;;;24.10;77.60;;;;;;5062399;28;20033;-64
2023/08/09 11:44:36;;;;;;;1.25;0.70;;;24.10;87.00;;;;;;5061713;28;20024;-64
2023/08/09 11:47:03;;;;;;;1.55;0.85;;;24.20;79.80;;;;;;5054957;28;20025;-62
2023/08/09 11:49:33;;;;;;;2.33;1.52;;;24.60;77.00;;;;;;5053641;28;20048;-64
2023/08/09 11:52:00;;;;;;;4.75;1.55;;;24.60;83.00;;;;;;5062745;28;20071;-63
2023/08/09 11:54:27;;;;;;;2.25;1.20;;;24.00;77.50;;;;;;5065240;28;20044;-64
2023/08/09 11:56:52;;;;;;;3.08;1.45;;;24.60;75.40;;;;;;5038850;28;20085;-64
2023/08/09 11:59:21;;;;;;;2.63;1.50;;;23.90;77.20;;;;;;5063202;28;20116;-65
2023/08/09 12:01:50;;;;;;;2.90;1.60;;;23.90;78.70;;;;;;5058427;28;20021;-62
2023/08/09 12:04:20;;;;;;;3.83;1.60;;;23.90;84.30;;;;;;5069029;28;20103;-65
2023/08/09 12:06:45;;;;;;;3.15;1.50;;;24.10;82.40;;;;;;5064915;28;20044;-64
2023/08/09 12:09:35;;;;;;;2.65;1.60;;;24.20;82.00;;;;;;5072440;28;20027;-65
2023/08/09 12:12:07;;;;;;;5.20;1.42;;;24.10;78.50;;;;;;5059785;28;20059;-65
2023/08/09 12:14:34;;;;;;;2.50;1.40;;;24.00;76.70;;;;;;5054495;28;20021;-65
2023/08/09 12:17:01;;;;;;;2.33;1.48;;;23.90;80.00;;;;;;5070198;28;20033;-60
2023/08/09 12:19:27;;;;;;;4.35;1.50;;;24.20;78.30;;;;;;5060016;28;20665;-64
2023/08/09 12:21:53;;;;;;;2.42;1.52;;;24.20;76.40;;;;;;5056109;28;20037;-64
2023/08/09 12:24:19;;;;;;;3.70;1.40;;;24.40;78.40;;;;;;5059010;28;20074;-64
2023/08/09 12:26:45;;;;;;;3.40;1.35;;;24.50;76.10;;;;;;5057128;28;20084;-63
2023/08/09 12:29:10;;;;;;;3.90;1.60;;;24.60;76.00;;;;;;5052833;28;20475;-64
2023/08/09 12:31:36;;;;;;;2.70;1.70;;;24.40;74.00;;;;;;5063415;28;20024;-66
2023/08/09 12:34:02;;;;;;;9.00;1.88;;;24.40;74.40;;;;;;5054746;28;20506;-65
2023/08/09 12:36:29;;;;;;;2.78;1.65;;;24.20;73.50;;;;;;5065236;28;20043;-62
2023/08/09 12:38:56;;;;;;;5.55;1.48;;;24.00;75.20;;;;;;5057319;28;20028;-65
2023/08/09 12:41:22;;;;;;;2.60;1.35;;;24.40;77.20;;;;;;5062764;28;20017;-64
2023/08/09 12:43:47;;;;;;;4.50;1.60;;;24.70;76.00;;;;;;5059244;28;20028;-65
2023/08/09 12:46:14;;;;;;;4.30;1.60;;;24.40;77.90;;;;;;5080065;22;20048;-68
2023/08/09 12:48:39;;;;;;;3.05;1.80;;;24.60;74.20;;;;;;5060453;28;20045;-67